createdAt,value
2023-07-02T00:00:05.690Z,98.50
2023-07-02T00:02:32.444Z,98.50
2023-07-02T00:04:59.226Z,98.50
2023-07-02T00:07:27.043Z,98.50
2023-07-02T00:09:54.208Z,98.50
2023-07-02T00:12:21.085Z,98.50
2023-07-02T00:14:47.845Z,98.50
2023-07-02T00:17:14.592Z,98.50
2023-07-02T00:19:43.125Z,98.50
2023-07-02T00:22:10.584Z,98.50
2023-07-02T00:24:38.126Z,98.50
2023-07-02T00:27:05.336Z,98.50
2023-07-02T00:29:32.112Z,98.50
2023-07-02T00:31:59.421Z,98.50
2023-07-02T00:34:26.203Z,98.50
2023-07-02T00:36:53.308Z,98.50
2023-07-02T00:39:20.195Z,98.50
2023-07-02T00:41:49.953Z,98.50
2023-07-02T00:44:16.803Z,98.50
2023-07-02T00:46:43.748Z,98.50
2023-07-02T00:49:11.112Z,98.50
2023-07-02T00:51:38.689Z,98.50
2023-07-02T00:54:05.987Z,98.50
2023-07-02T00:56:32.822Z,98.50
2023-07-02T00:59:00.170Z,98.50
2023-07-02T01:01:35.503Z,98.50
2023-07-02T01:04:04.164Z,98.50
2023-07-02T01:06:33.772Z,98.50
2023-07-02T01:09:03.044Z,98.50
2023-07-02T01:11:31.663Z,98.50
2023-07-02T01:14:05.276Z,98.50
2023-07-02T01:16:34.264Z,98.50
2023-07-02T01:19:05.287Z,98.50
2023-07-02T01:21:33.680Z,98.50
2023-07-02T01:24:02.171Z,98.50
2023-07-02T01:26:38.220Z,98.50
2023-07-02T01:29:21.917Z,98.50
2023-07-02T01:31:49.193Z,98.50
2023-07-02T01:34:16.253Z,98.50
2023-07-02T01:36:43.065Z,98.50
2023-07-02T01:39:10.032Z,98.50
2023-07-02T01:41:45.634Z,98.50
2023-07-02T01:44:12.413Z,98.50
2023-07-02T01:46:39.288Z,98.50
2023-07-02T01:49:06.190Z,98.50
2023-07-02T01:51:33.213Z,98.50
2023-07-02T01:54:00.470Z,98.50
2023-07-02T01:56:27.655Z,98.50
2023-07-02T01:58:55.159Z,98.50
2023-07-02T02:01:21.955Z,98.50
2023-07-02T02:03:48.694Z,98.50
2023-07-02T02:06:15.488Z,98.50
2023-07-02T02:08:42.237Z,98.50
2023-07-02T02:11:09.183Z,98.50
2023-07-02T02:13:36.034Z,98.50
2023-07-02T02:16:02.903Z,98.50
2023-07-02T02:18:29.657Z,98.50
2023-07-02T02:20:56.437Z,98.50
2023-07-02T02:23:23.118Z,98.50
2023-07-02T02:25:49.954Z,98.50
2023-07-02T02:28:17.018Z,98.50
2023-07-02T02:30:43.774Z,98.50
2023-07-02T02:33:10.516Z,98.50
2023-07-02T02:35:37.208Z,98.50
2023-07-02T02:38:05.714Z,98.50
2023-07-02T02:40:32.485Z,98.50
2023-07-02T02:42:59.292Z,98.50
2023-07-02T02:45:26.111Z,98.50
2023-07-02T02:47:52.881Z,98.50
2023-07-02T02:50:19.590Z,98.50
2023-07-02T02:52:46.640Z,98.50
2023-07-02T02:55:13.755Z,98.50
2023-07-02T02:57:40.539Z,98.50
2023-07-02T03:00:08.261Z,98.50
2023-07-02T03:02:35.163Z,98.50
2023-07-02T03:05:03.466Z,98.50
2023-07-02T03:07:30.740Z,98.50
2023-07-02T03:09:57.508Z,98.50
2023-07-02T03:12:26.842Z,98.50
2023-07-02T03:14:55.690Z,98.50
2023-07-02T03:17:23.051Z,98.50
2023-07-02T03:19:50.470Z,98.50
2023-07-02T03:22:17.379Z,98.50
2023-07-02T03:24:44.226Z,98.50
2023-07-02T03:27:11.054Z,98.50
2023-07-02T03:29:39.280Z,98.50
2023-07-02T03:32:06.750Z,98.50
2023-07-02T03:34:33.574Z,98.50
2023-07-02T03:37:00.307Z,98.50
2023-07-02T03:39:27.298Z,98.50
2023-07-02T03:41:54.540Z,98.50
2023-07-02T03:44:21.556Z,98.50
2023-07-02T03:46:48.310Z,98.50
2023-07-02T03:49:15.039Z,98.50
2023-07-02T03:51:42.007Z,98.50
2023-07-02T03:54:08.764Z,98.50
2023-07-02T03:56:35.578Z,98.50
2023-07-02T03:59:02.316Z,98.50
2023-07-02T04:01:29.029Z,98.50
2023-07-02T04:03:57.472Z,98.50
2023-07-02T04:06:24.301Z,98.50
2023-07-02T04:08:51.053Z,98.50
2023-07-02T04:11:17.912Z,98.50
2023-07-02T04:13:44.678Z,98.50
2023-07-02T04:16:11.462Z,98.50
2023-07-02T04:18:38.276Z,98.50
2023-07-02T04:21:05.174Z,98.50
2023-07-02T04:23:31.872Z,98.50
2023-07-02T04:26:08.626Z,98.50
2023-07-02T04:28:46.261Z,98.50
2023-07-02T04:31:13.287Z,98.50
2023-07-02T04:33:40.674Z,98.50
2023-07-02T04:36:07.729Z,98.50
2023-07-02T04:38:34.435Z,98.50
2023-07-02T04:41:06.498Z,98.50
2023-07-02T04:43:34.506Z,98.50
2023-07-02T04:46:01.962Z,98.50
2023-07-02T04:48:29.305Z,98.50
2023-07-02T04:50:56.058Z,98.50
2023-07-02T04:53:22.797Z,98.50
2023-07-02T04:55:49.590Z,98.50
2023-07-02T04:58:16.727Z,98.50
2023-07-02T05:00:43.830Z,98.50
2023-07-02T05:03:10.747Z,98.50
2023-07-02T05:05:37.505Z,98.50
2023-07-02T05:08:06.059Z,98.50
2023-07-02T05:10:33.369Z,98.50
2023-07-02T05:13:00.090Z,98.50
2023-07-02T05:15:27.431Z,98.50
2023-07-02T05:17:54.454Z,98.50
2023-07-02T05:20:21.444Z,98.50
2023-07-02T05:22:48.615Z,98.50
2023-07-02T05:25:15.394Z,98.50
2023-07-02T05:27:42.178Z,98.50
2023-07-02T05:30:09.362Z,98.50
2023-07-02T05:32:36.364Z,98.50
2023-07-02T05:35:03.230Z,98.50
2023-07-02T05:37:29.981Z,98.50
2023-07-02T05:39:56.754Z,98.50
2023-07-02T05:42:23.480Z,98.50
2023-07-02T05:44:51.408Z,98.50
2023-07-02T05:47:18.156Z,98.50
2023-07-02T05:49:44.898Z,98.50
2023-07-02T05:52:11.637Z,98.50
2023-07-02T05:54:44.546Z,98.50
2023-07-02T05:57:11.286Z,98.50
2023-07-02T05:59:39.179Z,98.50
2023-07-02T06:02:05.992Z,98.50
2023-07-02T06:04:32.847Z,98.50
2023-07-02T06:06:59.653Z,98.50
2023-07-02T06:09:27.900Z,98.50
2023-07-02T06:11:54.693Z,98.50
2023-07-02T06:14:21.519Z,98.50
2023-07-02T06:16:48.404Z,98.50
2023-07-02T06:19:15.203Z,98.50
2023-07-02T06:21:41.963Z,98.50
2023-07-02T06:24:08.720Z,98.50
2023-07-02T06:26:35.494Z,98.50
2023-07-02T06:29:02.243Z,98.50
2023-07-02T06:31:28.997Z,98.50
2023-07-02T06:33:56.062Z,98.50
2023-07-02T06:36:23.030Z,98.50
2023-07-02T06:38:50.101Z,98.50
2023-07-02T06:41:17.052Z,98.50
2023-07-02T06:43:45.108Z,98.50
2023-07-02T06:46:13.223Z,98.50
2023-07-02T06:48:40.114Z,98.50
2023-07-02T06:51:08.146Z,98.50
2023-07-02T06:53:35.509Z,98.50
2023-07-02T06:56:02.270Z,98.50
2023-07-02T06:58:29.043Z,98.50
2023-07-02T07:00:55.770Z,98.50
2023-07-02T07:03:22.526Z,98.50
2023-07-02T07:05:50.052Z,98.50
2023-07-02T07:08:16.861Z,98.50
2023-07-02T07:10:43.689Z,98.50
2023-07-02T07:13:12.070Z,98.50
2023-07-02T07:15:39.362Z,98.50
2023-07-02T07:18:06.307Z,98.50
2023-07-02T07:20:33.131Z,98.50
2023-07-02T07:23:00.000Z,98.50
2023-07-02T07:25:26.910Z,98.50
2023-07-02T07:27:53.974Z,98.50
2023-07-02T07:30:24.013Z,98.50
2023-07-02T07:32:54.601Z,98.50
2023-07-02T07:35:22.923Z,98.50
2023-07-02T07:37:50.651Z,98.50
2023-07-02T07:40:17.597Z,98.50
2023-07-02T07:42:44.672Z,98.50
2023-07-02T07:45:12.534Z,98.50
2023-07-02T07:47:40.648Z,98.50
2023-07-02T07:50:11.840Z,98.50
2023-07-02T07:52:43.248Z,98.50
2023-07-02T07:55:10.428Z,98.50
2023-07-02T07:57:38.567Z,98.50
2023-07-02T08:00:09.790Z,98.50
2023-07-02T08:02:36.734Z,98.50
2023-07-02T08:05:04.945Z,98.50
2023-07-02T08:07:33.412Z,98.50
2023-07-02T08:10:00.940Z,98.50
2023-07-02T08:12:29.951Z,98.50
2023-07-02T08:15:00.183Z,98.50
2023-07-02T08:17:27.019Z,98.50
2023-07-02T08:19:56.596Z,98.50
2023-07-02T08:22:23.379Z,98.50
2023-07-02T08:24:53.395Z,98.50
2023-07-02T08:27:21.349Z,98.50
2023-07-02T08:29:48.580Z,98.50
2023-07-02T08:32:16.465Z,98.50
2023-07-02T08:34:43.238Z,98.50
2023-07-02T08:37:10.168Z,98.50
2023-07-02T08:39:38.632Z,98.50
2023-07-02T08:42:05.714Z,98.50
2023-07-02T08:44:32.627Z,98.50
2023-07-02T08:46:59.925Z,98.50
2023-07-02T08:49:26.916Z,98.50
2023-07-02T08:51:53.630Z,98.50
2023-07-02T08:54:21.009Z,98.50
2023-07-02T08:56:48.073Z,98.50
2023-07-02T08:59:14.815Z,98.50
2023-07-02T09:01:52.144Z,98.50
2023-07-02T09:04:20.513Z,98.50
2023-07-02T09:06:49.022Z,98.50
2023-07-02T09:09:15.914Z,98.50
2023-07-02T09:11:50.836Z,98.50
2023-07-02T09:14:27.911Z,98.50
2023-07-02T09:17:10.156Z,98.50
2023-07-02T09:19:48.823Z,98.50
2023-07-02T09:22:16.978Z,98.50
2023-07-02T09:24:58.665Z,98.50
2023-07-02T09:27:44.213Z,98.50
2023-07-02T09:30:17.213Z,98.50
2023-07-02T09:32:45.826Z,98.50
2023-07-02T09:35:13.394Z,98.50
2023-07-02T09:37:42.675Z,98.50
2023-07-02T09:40:10.194Z,98.50
2023-07-02T09:42:39.736Z,98.50
2023-07-02T09:45:09.698Z,98.50
2023-07-02T09:47:48.571Z,98.50
2023-07-02T09:50:17.087Z,98.50
2023-07-02T09:52:46.945Z,98.50
2023-07-02T09:55:14.239Z,98.50
2023-07-02T09:57:41.695Z,98.50
2023-07-02T10:00:09.907Z,98.50
2023-07-02T10:02:37.506Z,98.50
2023-07-02T10:05:04.669Z,98.50
2023-07-02T10:07:34.478Z,98.50
2023-07-02T10:10:02.034Z,98.50
2023-07-02T10:12:30.287Z,98.50
2023-07-02T10:14:59.121Z,98.50
2023-07-02T10:17:26.110Z,98.50
2023-07-02T10:19:54.050Z,98.50
2023-07-02T10:22:20.850Z,98.50
2023-07-02T10:25:06.862Z,98.50
2023-07-02T10:27:40.335Z,98.50
2023-07-02T10:30:08.775Z,98.50
2023-07-02T10:32:36.779Z,98.50
2023-07-02T10:35:17.772Z,98.50
2023-07-02T10:37:45.789Z,98.50
2023-07-02T10:40:13.276Z,98.50
2023-07-02T10:42:50.855Z,98.50
2023-07-02T10:45:18.292Z,98.50
2023-07-02T10:47:45.153Z,98.50
2023-07-02T10:50:31.055Z,98.50
2023-07-02T10:52:57.831Z,98.50
2023-07-02T10:55:26.344Z,98.50
2023-07-02T10:58:05.275Z,98.50
2023-07-02T11:00:32.695Z,98.50
2023-07-02T11:03:01.578Z,98.50
2023-07-02T11:05:30.054Z,98.50
2023-07-02T11:08:09.887Z,98.50
2023-07-02T11:10:36.868Z,98.50
2023-07-02T11:13:16.505Z,98.50
2023-07-02T11:15:43.919Z,98.50
2023-07-02T11:18:12.481Z,98.50
2023-07-02T11:20:39.752Z,98.50
2023-07-02T11:23:17.350Z,98.50
2023-07-02T11:25:54.624Z,98.50
2023-07-02T11:28:24.122Z,98.50
2023-07-02T11:30:50.999Z,98.50
2023-07-02T11:33:17.848Z,98.50
2023-07-02T11:35:44.757Z,98.50
2023-07-02T11:38:11.982Z,98.50
2023-07-02T11:40:38.983Z,96.90
2023-07-02T11:43:07.162Z,96.20
2023-07-02T11:45:34.235Z,96.70
2023-07-02T11:48:01.305Z,97.20
2023-07-02T11:50:28.170Z,97.40
2023-07-02T11:52:55.034Z,98.00
2023-07-02T11:55:22.269Z,96.70
2023-07-02T11:57:50.599Z,95.80
2023-07-02T12:00:17.847Z,95.80
2023-07-02T12:02:45.030Z,94.70
2023-07-02T12:05:13.031Z,93.80
2023-07-02T12:07:40.313Z,93.90
2023-07-02T12:10:08.729Z,93.20
2023-07-02T12:12:35.534Z,92.90
2023-07-02T12:15:02.248Z,93.20
2023-07-02T12:17:29.097Z,94.50
2023-07-02T12:19:55.841Z,93.80
2023-07-02T12:22:24.076Z,90.70
2023-07-02T12:24:51.573Z,91.80
2023-07-02T12:27:18.356Z,91.90
2023-07-02T12:29:45.200Z,92.40
2023-07-02T12:32:11.958Z,92.60
2023-07-02T12:34:38.821Z,92.40
2023-07-02T12:37:06.022Z,92.40
2023-07-02T12:39:32.798Z,93.90
2023-07-02T12:41:59.533Z,91.40
2023-07-02T12:44:26.436Z,91.70
2023-07-02T12:46:53.385Z,89.30
2023-07-02T12:49:20.407Z,90.40
2023-07-02T12:51:48.034Z,91.70
2023-07-02T12:54:16.126Z,92.20
2023-07-02T12:56:45.787Z,89.10
2023-07-02T12:59:12.869Z,89.80
2023-07-02T13:01:39.777Z,88.40
2023-07-02T13:04:07.321Z,87.90
2023-07-02T13:06:41.332Z,89.30
2023-07-02T13:09:11.577Z,90.10
2023-07-02T13:11:39.480Z,91.20
2023-07-02T13:14:06.353Z,91.50
2023-07-02T13:16:33.207Z,89.50
2023-07-02T13:19:03.003Z,89.50
2023-07-02T13:21:30.260Z,87.50
2023-07-02T13:23:57.643Z,86.30
2023-07-02T13:26:24.937Z,85.30
2023-07-02T13:28:52.173Z,84.70
2023-07-02T13:31:19.317Z,82.80
2023-07-02T13:33:50.557Z,82.60
2023-07-02T13:36:17.928Z,84.00
2023-07-02T13:38:44.854Z,85.20
2023-07-02T13:41:11.849Z,85.10
2023-07-02T13:43:38.646Z,83.70
2023-07-02T13:46:05.456Z,83.90
2023-07-02T13:48:32.328Z,83.00
2023-07-02T13:50:59.736Z,82.50
2023-07-02T13:53:26.864Z,83.10
2023-07-02T13:55:53.787Z,82.80
2023-07-02T13:58:29.527Z,82.90
2023-07-02T14:00:57.941Z,82.30
2023-07-02T14:03:24.895Z,83.50
2023-07-02T14:05:52.389Z,84.00
2023-07-02T14:08:19.451Z,83.50
2023-07-02T14:10:46.194Z,81.90
2023-07-02T14:13:12.996Z,82.50
2023-07-02T14:15:39.925Z,82.20
2023-07-02T14:18:07.335Z,82.70
2023-07-02T14:20:34.222Z,81.80
2023-07-02T14:23:01.019Z,81.10
2023-07-02T14:25:40.441Z,81.10
2023-07-02T14:28:09.709Z,81.80
2023-07-02T14:30:38.012Z,80.70
2023-07-02T14:33:05.425Z,79.20
2023-07-02T14:35:32.352Z,79.40
2023-07-02T14:37:59.658Z,80.50
2023-07-02T14:40:26.533Z,81.00
2023-07-02T14:42:53.495Z,80.90
2023-07-02T14:45:20.345Z,81.20
2023-07-02T14:47:47.282Z,82.30
2023-07-02T14:50:14.833Z,81.90
2023-07-02T14:52:42.343Z,82.60
2023-07-02T14:55:09.261Z,82.00
2023-07-02T14:57:36.150Z,82.60
2023-07-02T15:00:03.998Z,83.50
2023-07-02T15:02:30.979Z,83.00
2023-07-02T15:04:57.983Z,82.20
2023-07-02T15:07:24.998Z,80.40
2023-07-02T15:09:51.834Z,80.20
2023-07-02T15:12:18.839Z,79.80
2023-07-02T15:14:45.629Z,79.70
2023-07-02T15:17:12.379Z,79.50
2023-07-02T15:19:39.237Z,79.40
2023-07-02T15:22:06.015Z,79.40
2023-07-02T15:24:34.549Z,79.60
2023-07-02T15:27:02.221Z,80.60
2023-07-02T15:29:29.105Z,81.80
2023-07-02T15:31:55.907Z,82.70
2023-07-02T15:34:22.753Z,82.10
2023-07-02T15:36:49.530Z,81.30
2023-07-02T15:39:21.884Z,81.40
2023-07-02T15:41:48.642Z,82.30
2023-07-02T15:44:15.622Z,83.30
2023-07-02T15:46:42.467Z,83.60
2023-07-02T15:49:10.134Z,83.10
2023-07-02T15:51:40.213Z,82.10
2023-07-02T15:54:08.235Z,82.20
2023-07-02T15:56:36.077Z,82.60
2023-07-02T15:59:03.818Z,82.80
2023-07-02T16:01:31.543Z,82.50
2023-07-02T16:03:58.502Z,82.80
2023-07-02T16:06:30.571Z,82.70
2023-07-02T16:08:57.453Z,83.50
2023-07-02T16:11:25.787Z,84.30
2023-07-02T16:13:53.140Z,85.10
2023-07-02T16:16:20.130Z,83.30
2023-07-02T16:18:47.640Z,82.60
2023-07-02T16:21:14.412Z,81.80
2023-07-02T16:23:41.816Z,81.80
2023-07-02T16:26:10.781Z,80.80
2023-07-02T16:28:38.935Z,80.70
2023-07-02T16:31:09.225Z,80.40
2023-07-02T16:33:38.038Z,81.50
2023-07-02T16:36:08.034Z,82.00
2023-07-02T16:38:36.490Z,81.50
2023-07-02T16:41:04.391Z,82.00
2023-07-02T16:43:31.170Z,82.60
2023-07-02T16:45:57.997Z,81.50
2023-07-02T16:48:25.685Z,82.10
2023-07-02T16:51:04.877Z,82.70
2023-07-02T16:53:31.813Z,83.00
2023-07-02T16:56:03.717Z,83.60
2023-07-02T16:58:31.697Z,83.20
2023-07-02T17:01:10.212Z,83.00
2023-07-02T17:03:37.491Z,83.40
2023-07-02T17:06:06.832Z,83.20
2023-07-02T17:08:36.768Z,83.80
2023-07-02T17:11:04.348Z,82.50
2023-07-02T17:13:31.365Z,82.90
2023-07-02T17:15:58.343Z,83.40
2023-07-02T17:18:26.165Z,83.80
2023-07-02T17:20:53.495Z,83.70
2023-07-02T17:23:22.822Z,83.80
2023-07-02T17:25:50.953Z,83.80
2023-07-02T17:28:18.980Z,83.80
2023-07-02T17:30:45.971Z,83.90
2023-07-02T17:33:12.773Z,84.00
2023-07-02T17:35:43.595Z,84.10
2023-07-02T17:38:10.757Z,83.90
2023-07-02T17:40:41.353Z,84.10
2023-07-02T17:43:08.931Z,84.60
2023-07-02T17:45:35.720Z,85.00
2023-07-02T17:48:04.450Z,84.40
2023-07-02T17:50:31.413Z,84.70
2023-07-02T17:52:58.205Z,84.80
2023-07-02T17:55:25.099Z,85.10
2023-07-02T17:57:52.002Z,85.20
2023-07-02T18:00:18.818Z,85.40
2023-07-02T18:02:46.050Z,85.60
2023-07-02T18:05:12.879Z,85.70
2023-07-02T18:07:39.668Z,86.00
2023-07-02T18:10:06.865Z,86.00
2023-07-02T18:12:33.688Z,86.60
2023-07-02T18:15:00.557Z,86.70
2023-07-02T18:17:27.437Z,86.80
2023-07-02T18:19:57.001Z,86.80
2023-07-02T18:22:23.929Z,86.80
2023-07-02T18:24:50.795Z,86.70
2023-07-02T18:27:17.580Z,86.60
2023-07-02T18:29:44.499Z,86.70
2023-07-02T18:32:11.262Z,86.70
2023-07-02T18:34:40.910Z,87.10
2023-07-02T18:37:10.688Z,86.90
2023-07-02T18:39:38.188Z,87.20
2023-07-02T18:42:11.200Z,87.40
2023-07-02T18:44:39.296Z,87.70
2023-07-02T18:47:09.501Z,87.80
2023-07-02T18:49:37.481Z,88.20
2023-07-02T18:52:07.204Z,88.50
2023-07-02T18:54:36.074Z,88.80
2023-07-02T18:57:04.685Z,89.30
2023-07-02T18:59:31.830Z,89.40
2023-07-02T19:02:00.077Z,89.70
2023-07-02T19:04:27.912Z,90.30
2023-07-02T19:06:57.368Z,91.00
2023-07-02T19:09:24.432Z,91.30
2023-07-02T19:11:51.244Z,91.90
2023-07-02T19:14:18.021Z,92.20
2023-07-02T19:16:44.915Z,92.90
2023-07-02T19:19:11.662Z,93.20
2023-07-02T19:21:38.489Z,93.40
2023-07-02T19:24:05.744Z,93.60
2023-07-02T19:26:32.676Z,93.90
2023-07-02T19:28:59.433Z,94.30
2023-07-02T19:31:26.488Z,94.50
2023-07-02T19:33:53.349Z,94.90
2023-07-02T19:36:20.258Z,95.30
2023-07-02T19:38:47.124Z,95.70
2023-07-02T19:41:13.922Z,95.90
2023-07-02T19:43:40.652Z,96.00
2023-07-02T19:46:07.374Z,96.50
2023-07-02T19:48:34.197Z,96.70
2023-07-02T19:51:03.176Z,97.00
2023-07-02T19:53:30.716Z,97.20
2023-07-02T19:55:58.669Z,97.70
2023-07-02T19:58:25.827Z,97.80
2023-07-02T20:00:53.342Z,97.70
2023-07-02T20:03:20.546Z,98.00
2023-07-02T20:05:48.347Z,97.70
2023-07-02T20:08:15.480Z,97.80
2023-07-02T20:10:42.308Z,97.80
2023-07-02T20:13:09.252Z,97.90
2023-07-02T20:15:36.131Z,98.10
2023-07-02T20:18:04.347Z,98.20
2023-07-02T20:20:32.072Z,98.40
2023-07-02T20:22:59.551Z,98.30
2023-07-02T20:27:56.437Z,98.50
2023-07-02T20:30:23.417Z,98.50
2023-07-02T20:32:50.448Z,98.50
2023-07-02T20:35:20.132Z,98.50
2023-07-02T20:37:51.161Z,98.50
2023-07-02T20:40:19.027Z,98.50
2023-07-02T20:42:46.039Z,98.50
2023-07-02T20:45:14.376Z,98.50
2023-07-02T20:47:42.489Z,98.50
2023-07-02T20:50:12.074Z,98.50
2023-07-02T20:52:38.845Z,98.50
2023-07-02T20:55:05.975Z,98.50
2023-07-02T20:57:33.411Z,98.50
2023-07-02T21:00:00.685Z,98.50
2023-07-02T21:02:28.200Z,98.50
2023-07-02T21:04:57.996Z,98.50
2023-07-02T21:07:27.227Z,98.50
2023-07-02T21:09:54.130Z,98.50
2023-07-02T21:12:20.912Z,98.50
2023-07-02T21:14:54.888Z,98.50
2023-07-02T21:17:22.383Z,98.50
2023-07-02T21:19:49.151Z,98.50
2023-07-02T21:22:15.864Z,98.50
2023-07-02T21:24:42.739Z,98.50
2023-07-02T21:27:09.487Z,98.50
2023-07-02T21:29:36.349Z,98.50
2023-07-02T21:32:03.419Z,98.50
2023-07-02T21:34:30.423Z,98.50
2023-07-02T21:36:57.331Z,98.50
2023-07-02T21:39:24.216Z,98.50
2023-07-02T21:41:50.953Z,98.50
2023-07-02T21:44:19.266Z,98.50
2023-07-02T21:46:46.124Z,98.50
2023-07-02T21:49:12.999Z,98.50
2023-07-02T21:51:39.727Z,98.50
2023-07-02T21:54:06.447Z,98.50
2023-07-02T21:56:33.170Z,98.50
2023-07-02T21:59:00.372Z,98.50
2023-07-02T22:01:27.356Z,98.50
2023-07-02T22:03:54.173Z,98.50
2023-07-02T22:07:00.016Z,98.50
2023-07-02T22:09:26.758Z,98.50
2023-07-02T22:11:53.520Z,98.50
2023-07-02T22:14:20.305Z,98.50
2023-07-02T22:16:47.073Z,98.50
2023-07-02T22:19:13.873Z,98.50
2023-07-02T22:21:45.373Z,98.50
2023-07-02T22:24:12.945Z,98.50
2023-07-02T22:26:39.744Z,98.50
2023-07-02T22:29:06.465Z,98.50
2023-07-02T22:31:33.353Z,98.50
2023-07-02T22:34:00.176Z,98.50
2023-07-02T22:36:26.939Z,98.50
2023-07-02T22:38:53.791Z,98.50
2023-07-02T22:41:20.478Z,98.50
2023-07-02T22:43:47.243Z,98.50
2023-07-02T22:46:14.620Z,98.50
2023-07-02T22:48:41.459Z,98.50
2023-07-02T22:51:08.192Z,98.50
2023-07-02T22:53:35.097Z,98.50
2023-07-02T22:56:12.677Z,98.50
2023-07-02T22:58:39.839Z,98.50
2023-07-02T23:01:09.397Z,98.50
2023-07-02T23:03:37.262Z,98.50
2023-07-02T23:06:04.858Z,98.50
2023-07-02T23:08:31.835Z,98.50
2023-07-02T23:10:58.717Z,98.50
2023-07-02T23:13:25.416Z,98.50
2023-07-02T23:15:52.887Z,98.50
2023-07-02T23:18:19.865Z,98.50
2023-07-02T23:20:46.748Z,98.50
2023-07-02T23:23:14.699Z,98.50
2023-07-02T23:25:46.834Z,98.50
2023-07-02T23:28:13.959Z,98.50
2023-07-02T23:30:42.950Z,98.50
2023-07-02T23:33:11.131Z,98.50
2023-07-02T23:35:38.806Z,98.50
2023-07-02T23:38:07.266Z,98.50
2023-07-02T23:40:35.098Z,98.50
2023-07-02T23:43:02.384Z,98.50
2023-07-02T23:45:29.389Z,98.50
2023-07-02T23:47:56.311Z,98.50
2023-07-02T23:50:23.202Z,98.50
2023-07-02T23:52:51.013Z,98.50
2023-07-02T23:55:18.130Z,98.50
2023-07-02T23:57:45.733Z,98.50
